Sand Pass, Nevada
Current Conditions -  °F | °C
As of 4:15 AM on Monday 20 Oct 2014 (Local Time) from KRTS Reporting Station
Clear Clear  
Wind Chill: 54°   Ceiling: Unl
Heat Index: 54°   Visibility: 10mi
Dew Point: 28°   Wind: 8mph
Humidity: 38%   Direction: 230°SW
Pressure: 29.97"   Gusts: NA
Location:  39.8171°N, 119.63°W
Report Text: KRTS 201115Z AUTO 23007KT 10SM CLR 12/M02 A2997 RMK AO2
Loading
Personal Weather Stations






























Interactive Weather Map
Tropical Storm Tracking
New forecast layout! Learn more

10-Day Weather Forecast

Advertisements
Track Severe Weather on mobile